Calumet, IA (51009)

01:44 AM CDT del 31 Agosto 2015 (GMT -0500)
North of Peterson | | Change Station
CLOSE
Current Station
Stazione meteo personale
Location: Peterson, IA
Altitudine: 1414 ft
Stazioni meteo nelle vicinanze

Alt. 1414 ft 42.99 °N, 95.35 °W | Updated 8 minutes ago

Sereno
Sereno
65.7 °F
Sembra 65.7 °F
N
6.7
Vento Variabile Vento da SSO

Oggi
Massima -- | Minima -- °F
--% Possibilità di precip.
Ieri
Massima -- | Minima -- °F
Precip. -- in
6:45 AM 7:58 PM
Gobba a levante, 97% visible
Pressione 29.96 in
Visibilità 5.0 miglia
Nuvole Sereno
Punto di rugiada 65 °F
Umidità 99%
Piovosità 0.00 in
Spessore del manto nevoso Non disponibile.
Raggi UV 0 fuori da 12
Polline 10.30 fuori da 12
Qualità dell'aria Non disponibile.
Flu Activity Non disponibile.
METAR KCKP 310615Z AUTO 18004KT 5SM BR CLR 18/18 A2996 RMK AO2 T01770177
Pressione 29.96 in
Visibilità 5.0 miglia
Nuvole Sereno
Punto di rugiada 65 °F
Umidità 99%
Piovosità 0.00 in
Spessore del manto nevoso Non disponibile.
Raggi UV 0 fuori da 12
Polline 10.30 fuori da 12
Qualità dell'aria Non disponibile.
Flu Activity Non disponibile.
METAR KCKP 310615Z AUTO 18004KT 5SM BR CLR 18/18 A2996 RMK AO2 T01770177

10-Day Weather Forecast

×

Almanac

Astronomia

Aug. 31, 2015 Alba Tramonto
Ora attuale
Crepuscolo civile
Crepuscolo nautico
Crepuscolo astronomico
Luna
Estensione della luce visibile
Lunghezza del giorno
Tomorrow will be .
, % of the Moon is Illuminated

Gli estremi di oggi

State Highs State Lows

Community

WunderPhotos

Upload Photos

1,851,217 foto caricate!

WunderBlogs® & News

Nearby

Qualità dell'aria

  Qualità dell'aria Indice AQ Inquinante
Not available.

Profondità neve

Stazione Profondità Altitudine

Attività sismica

Città  Distanza Mag. Data & Ora
Minimo Magnitudo Mostrato è 2.5.

Temperature delle acque costiere

Località Temperatura

Stations

Stazioni meteo nelle vicinanze

Ubicazione della stazione Temp. Raffreddamento del vento Punto di rugiada Umidità Vento Precip. Alt. Aggiornato Tipo